sensor_id;sensor_type;location;lat;lon;timestamp;temperature;humidity
24632;DHT22;59977;48.782;9.190;2024-03-02T00:02:08;9.20;99.90
24632;DHT22;59977;48.782;9.190;2024-03-02T00:04:36;9.90;99.90
24632;DHT22;59977;48.782;9.190;2024-03-02T00:07:02;9.20;99.90
24632;DHT22;59977;48.782;9.190;2024-03-02T00:09:29;9.20;99.90
24632;DHT22;59977;48.782;9.190;2024-03-02T00:11:55;9.80;99.90
24632;DHT22;59977;48.782;9.190;2024-03-02T00:14:20;9.10;99.90
24632;DHT22;59977;48.782;9.190;2024-03-02T00:16:46;9.40;99.90
24632;DHT22;59977;48.782;9.190;2024-03-02T00:19:12;9.10;99.90
24632;DHT22;59977;48.782;9.190;2024-03-02T00:21:38;9.10;99.90
24632;DHT22;59977;48.782;9.190;2024-03-02T00:24:36;9.10;99.90
24632;DHT22;59977;48.782;9.190;2024-03-02T00:27:03;9.60;99.90
24632;DHT22;59977;48.782;9.190;2024-03-02T00:29:30;9.10;99.90
24632;DHT22;59977;48.782;9.190;2024-03-02T00:31:55;9.30;99.90
24632;DHT22;59977;48.782;9.190;2024-03-02T00:34:22;9.30;99.90
24632;DHT22;59977;48.782;9.190;2024-03-02T00:36:48;10.00;99.90
24632;DHT22;59977;48.782;9.190;2024-03-02T00:39:15;9.20;99.90
24632;DHT22;59977;48.782;9.190;2024-03-02T00:41:42;10.30;99.90
24632;DHT22;59977;48.782;9.190;2024-03-02T00:44:11;9.00;99.90
24632;DHT22;59977;48.782;9.190;2024-03-02T00:46:39;8.90;99.90
24632;DHT22;59977;48.782;9.190;2024-03-02T00:49:20;9.00;99.90
24632;DHT22;59977;48.782;9.190;2024-03-02T00:51:48;9.00;99.90
24632;DHT22;59977;48.782;9.190;2024-03-02T00:54:14;9.00;99.90
24632;DHT22;59977;48.782;9.190;2024-03-02T00:56:41;9.00;99.90
24632;DHT22;59977;48.782;9.190;2024-03-02T00:59:07;9.20;99.90
24632;DHT22;59977;48.782;9.190;2024-03-02T01:01:34;9.20;99.90
24632;DHT22;59977;48.782;9.190;2024-03-02T01:03:59;10.30;99.90
24632;DHT22;59977;48.782;9.190;2024-03-02T01:06:25;9.00;99.90
24632;DHT22;59977;48.782;9.190;2024-03-02T01:08:51;9.00;99.90
24632;DHT22;59977;48.782;9.190;2024-03-02T01:11:17;9.40;99.90
24632;DHT22;59977;48.782;9.190;2024-03-02T01:13:43;9.60;99.90
24632;DHT22;59977;48.782;9.190;2024-03-02T01:16:09;9.00;99.90
24632;DHT22;59977;48.782;9.190;2024-03-02T01:18:35;9.00;99.90
24632;DHT22;59977;48.782;9.190;2024-03-02T01:21:00;8.90;99.90
24632;DHT22;59977;48.782;9.190;2024-03-02T01:23:27;8.80;99.90
24632;DHT22;59977;48.782;9.190;2024-03-02T01:25:52;8.80;99.90
24632;DHT22;59977;48.782;9.190;2024-03-02T01:28:19;8.80;99.90
24632;DHT22;59977;48.782;9.190;2024-03-02T01:30:46;8.70;99.90
24632;DHT22;59977;48.782;9.190;2024-03-02T01:33:11;9.70;99.90
24632;DHT22;59977;48.782;9.190;2024-03-02T01:35:37;8.70;99.90
24632;DHT22;59977;48.782;9.190;2024-03-02T01:38:03;8.70;99.90
24632;DHT22;59977;48.782;9.190;2024-03-02T01:40:32;8.70;99.90
24632;DHT22;59977;48.782;9.190;2024-03-02T01:42:58;8.50;99.90
24632;DHT22;59977;48.782;9.190;2024-03-02T01:45:24;8.50;99.90
24632;DHT22;59977;48.782;9.190;2024-03-02T01:47:50;8.60;99.90
24632;DHT22;59977;48.782;9.190;2024-03-02T01:50:16;8.50;99.90
24632;DHT22;59977;48.782;9.190;2024-03-02T01:52:49;8.60;99.90
24632;DHT22;59977;48.782;9.190;2024-03-02T01:55:15;8.50;99.90
24632;DHT22;59977;48.782;9.190;2024-03-02T01:57:40;8.50;99.90
24632;DHT22;59977;48.782;9.190;2024-03-02T02:00:06;8.50;99.90
24632;DHT22;59977;48.782;9.190;2024-03-02T02:02:32;8.50;99.90
24632;DHT22;59977;48.782;9.190;2024-03-02T02:04:58;8.60;99.90
24632;DHT22;59977;48.782;9.190;2024-03-02T02:07:23;8.40;99.90
24632;DHT22;59977;48.782;9.190;2024-03-02T02:09:49;8.80;99.90
24632;DHT22;59977;48.782;9.190;2024-03-02T02:12:15;9.80;99.90
24632;DHT22;59977;48.782;9.190;2024-03-02T02:14:47;8.40;99.90
24632;DHT22;59977;48.782;9.190;2024-03-02T02:17:14;8.70;99.90
24632;DHT22;59977;48.782;9.190;2024-03-02T02:19:40;8.40;99.90
24632;DHT22;59977;48.782;9.190;2024-03-02T02:22:06;8.40;99.90
24632;DHT22;59977;48.782;9.190;2024-03-02T02:24:32;8.30;99.90
24632;DHT22;59977;48.782;9.190;2024-03-02T02:26:57;8.50;99.90
24632;DHT22;59977;48.782;9.190;2024-03-02T02:29:23;8.30;99.90
24632;DHT22;59977;48.782;9.190;2024-03-02T02:31:48;8.30;99.90
24632;DHT22;59977;48.782;9.190;2024-03-02T02:34:14;9.50;99.90
24632;DHT22;59977;48.782;9.190;2024-03-02T02:36:41;8.50;99.90
24632;DHT22;59977;48.782;9.190;2024-03-02T02:39:11;8.20;99.90
24632;DHT22;59977;48.782;9.190;2024-03-02T02:41:38;8.20;99.90
24632;DHT22;59977;48.782;9.190;2024-03-02T02:44:04;8.20;99.90
24632;DHT22;59977;48.782;9.190;2024-03-02T02:46:30;8.20;99.90
24632;DHT22;59977;48.782;9.190;2024-03-02T02:48:56;9.20;99.90
24632;DHT22;59977;48.782;9.190;2024-03-02T02:51:21;8.60;99.90
24632;DHT22;59977;48.782;9.190;2024-03-02T02:53:47;8.10;99.90
24632;DHT22;59977;48.782;9.190;2024-03-02T02:56:12;9.10;99.90
24632;DHT22;59977;48.782;9.190;2024-03-02T02:58:39;8.10;99.90
24632;DHT22;59977;48.782;9.190;2024-03-02T03:01:05;8.10;99.90
24632;DHT22;59977;48.782;9.190;2024-03-02T03:03:30;8.60;99.90
24632;DHT22;59977;48.782;9.190;2024-03-02T03:05:56;8.00;99.90
24632;DHT22;59977;48.782;9.190;2024-03-02T03:08:22;8.60;99.90
24632;DHT22;59977;48.782;9.190;2024-03-02T03:10:49;7.90;99.90
24632;DHT22;59977;48.782;9.190;2024-03-02T03:13:15;7.90;99.90
24632;DHT22;59977;48.782;9.190;2024-03-02T03:15:40;8.00;99.90
24632;DHT22;59977;48.782;9.190;2024-03-02T03:18:06;7.80;99.90
24632;DHT22;59977;48.782;9.190;2024-03-02T03:20:36;7.70;99.90
24632;DHT22;59977;48.782;9.190;2024-03-02T03:23:01;7.70;99.90
24632;DHT22;59977;48.782;9.190;2024-03-02T03:25:29;7.60;99.90
24632;DHT22;59977;48.782;9.190;2024-03-02T03:27:55;7.70;99.90
24632;DHT22;59977;48.782;9.190;2024-03-02T03:30:20;7.70;99.90
24632;DHT22;59977;48.782;9.190;2024-03-02T03:32:46;7.70;99.90
24632;DHT22;59977;48.782;9.190;2024-03-02T03:35:13;7.70;99.90
24632;DHT22;59977;48.782;9.190;2024-03-02T03:37:40;7.70;99.90
24632;DHT22;59977;48.782;9.190;2024-03-02T03:40:06;7.60;99.90
24632;DHT22;59977;48.782;9.190;2024-03-02T03:42:36;7.60;99.90
24632;DHT22;59977;48.782;9.190;2024-03-02T03:45:02;7.70;99.90
24632;DHT22;59977;48.782;9.190;2024-03-02T03:47:28;7.70;99.90
24632;DHT22;59977;48.782;9.190;2024-03-02T03:49:54;7.70;99.90
24632;DHT22;59977;48.782;9.190;2024-03-02T03:52:19;7.70;99.90
24632;DHT22;59977;48.782;9.190;2024-03-02T03:54:46;7.70;99.90
24632;DHT22;59977;48.782;9.190;2024-03-02T03:57:12;7.80;99.90
24632;DHT22;59977;48.782;9.190;2024-03-02T03:59:37;7.50;99.90
24632;DHT22;59977;48.782;9.190;2024-03-02T04:02:03;7.60;99.90
24632;DHT22;59977;48.782;9.190;2024-03-02T04:04:29;7.60;99.90
24632;DHT22;59977;48.782;9.190;2024-03-02T04:06:55;8.70;99.90
24632;DHT22;59977;48.782;9.190;2024-03-02T04:09:21;8.00;99.90
24632;DHT22;59977;48.782;9.190;2024-03-02T04:11:46;7.60;99.90
24632;DHT22;59977;48.782;9.190;2024-03-02T04:14:12;7.70;99.90
24632;DHT22;59977;48.782;9.190;2024-03-02T04:16:38;7.60;99.90
24632;DHT22;59977;48.782;9.190;2024-03-02T04:19:04;9.10;99.90
24632;DHT22;59977;48.782;9.190;2024-03-02T04:21:30;7.60;99.90
24632;DHT22;59977;48.782;9.190;2024-03-02T04:23:56;8.10;99.90
24632;DHT22;59977;48.782;9.190;2024-03-02T04:26:25;7.90;99.90
24632;DHT22;59977;48.782;9.190;2024-03-02T04:28:52;7.70;99.90
24632;DHT22;59977;48.782;9.190;2024-03-02T04:31:17;7.50;99.90
24632;DHT22;59977;48.782;9.190;2024-03-02T04:33:43;7.50;99.90
24632;DHT22;59977;48.782;9.190;2024-03-02T04:36:08;7.50;99.90
24632;DHT22;59977;48.782;9.190;2024-03-02T04:38:38;8.30;99.90
24632;DHT22;59977;48.782;9.190;2024-03-02T04:41:04;7.50;99.90
24632;DHT22;59977;48.782;9.190;2024-03-02T04:43:31;7.50;99.90
24632;DHT22;59977;48.782;9.190;2024-03-02T04:45:58;7.50;99.90
24632;DHT22;59977;48.782;9.190;2024-03-02T04:48:23;7.50;99.90
24632;DHT22;59977;48.782;9.190;2024-03-02T04:50:49;7.50;99.90
24632;DHT22;59977;48.782;9.190;2024-03-02T04:53:14;7.50;99.90
24632;DHT22;59977;48.782;9.190;2024-03-02T04:55:40;7.50;99.90
24632;DHT22;59977;48.782;9.190;2024-03-02T04:58:06;7.50;99.90
24632;DHT22;59977;48.782;9.190;2024-03-02T05:00:32;7.50;99.90
24632;DHT22;59977;48.782;9.190;2024-03-02T05:02:58;7.50;99.90
24632;DHT22;59977;48.782;9.190;2024-03-02T05:05:23;7.50;99.90
24632;DHT22;59977;48.782;9.190;2024-03-02T05:07:49;7.70;99.90
24632;DHT22;59977;48.782;9.190;2024-03-02T05:10:14;8.30;99.90
24632;DHT22;59977;48.782;9.190;2024-03-02T05:12:41;7.40;99.90
24632;DHT22;59977;48.782;9.190;2024-03-02T05:15:09;7.40;99.90
24632;DHT22;59977;48.782;9.190;2024-03-02T05:17:36;7.40;99.90
24632;DHT22;59977;48.782;9.190;2024-03-02T05:20:02;7.40;99.90
24632;DHT22;59977;48.782;9.190;2024-03-02T05:22:29;7.40;99.90
24632;DHT22;59977;48.782;9.190;2024-03-02T05:24:54;8.50;99.90
24632;DHT22;59977;48.782;9.190;2024-03-02T05:27:20;7.30;99.90
24632;DHT22;59977;48.782;9.190;2024-03-02T05:29:46;7.30;99.90
24632;DHT22;59977;48.782;9.190;2024-03-02T05:32:12;7.40;99.90
24632;DHT22;59977;48.782;9.190;2024-03-02T05:34:38;7.30;99.90
24632;DHT22;59977;48.782;9.190;2024-03-02T05:37:03;7.20;99.90
24632;DHT22;59977;48.782;9.190;2024-03-02T05:39:29;7.20;99.90
24632;DHT22;59977;48.782;9.190;2024-03-02T05:41:54;6.50;99.90
24632;DHT22;59977;48.782;9.190;2024-03-02T05:44:20;7.10;99.90
24632;DHT22;59977;48.782;9.190;2024-03-02T05:46:46;7.10;99.90
24632;DHT22;59977;48.782;9.190;2024-03-02T05:49:11;7.80;99.90
24632;DHT22;59977;48.782;9.190;2024-03-02T05:51:37;7.00;99.90
24632;DHT22;59977;48.782;9.190;2024-03-02T05:54:03;7.00;99.90
24632;DHT22;59977;48.782;9.190;2024-03-02T05:56:28;7.00;99.90
24632;DHT22;59977;48.782;9.190;2024-03-02T05:58:54;7.00;99.90
24632;DHT22;59977;48.782;9.190;2024-03-02T06:01:47;7.30;99.90
24632;DHT22;59977;48.782;9.190;2024-03-02T06:04:14;7.10;99.90
24632;DHT22;59977;48.782;9.190;2024-03-02T06:06:40;7.10;99.90
24632;DHT22;59977;48.782;9.190;2024-03-02T06:09:06;7.10;99.90
24632;DHT22;59977;48.782;9.190;2024-03-02T06:11:36;7.10;99.90
24632;DHT22;59977;48.782;9.190;2024-03-02T06:14:08;7.20;99.90
24632;DHT22;59977;48.782;9.190;2024-03-02T06:16:34;7.20;99.90
24632;DHT22;59977;48.782;9.190;2024-03-02T06:19:01;7.20;99.90
24632;DHT22;59977;48.782;9.190;2024-03-02T06:21:27;7.20;99.90
24632;DHT22;59977;48.782;9.190;2024-03-02T06:23:53;7.60;99.90
24632;DHT22;59977;48.782;9.190;2024-03-02T06:26:19;7.30;99.90
24632;DHT22;59977;48.782;9.190;2024-03-02T06:28:45;7.40;99.90
24632;DHT22;59977;48.782;9.190;2024-03-02T06:31:11;8.30;99.90
24632;DHT22;59977;48.782;9.190;2024-03-02T06:33:36;7.60;99.90
24632;DHT22;59977;48.782;9.190;2024-03-02T06:36:03;7.60;99.90
24632;DHT22;59977;48.782;9.190;2024-03-02T06:38:28;7.70;99.90
24632;DHT22;59977;48.782;9.190;2024-03-02T06:40:54;8.20;99.90
24632;DHT22;59977;48.782;9.190;2024-03-02T06:43:21;7.80;99.90
24632;DHT22;59977;48.782;9.190;2024-03-02T06:45:50;8.20;99.90
24632;DHT22;59977;48.782;9.190;2024-03-02T06:48:16;9.20;99.90
24632;DHT22;59977;48.782;9.190;2024-03-02T06:50:49;7.80;99.90
24632;DHT22;59977;48.782;9.190;2024-03-02T06:53:14;7.80;99.90
24632;DHT22;59977;48.782;9.190;2024-03-02T06:55:43;7.80;99.90
24632;DHT22;59977;48.782;9.190;2024-03-02T06:58:11;7.90;99.90
24632;DHT22;59977;48.782;9.190;2024-03-02T07:00:40;8.10;99.90
24632;DHT22;59977;48.782;9.190;2024-03-02T07:03:06;7.90;99.90
24632;DHT22;59977;48.782;9.190;2024-03-02T07:05:31;7.80;99.90
24632;DHT22;59977;48.782;9.190;2024-03-02T07:07:57;7.90;99.90
24632;DHT22;59977;48.782;9.190;2024-03-02T07:10:23;8.00;99.90
24632;DHT22;59977;48.782;9.190;2024-03-02T07:12:48;8.10;99.90
24632;DHT22;59977;48.782;9.190;2024-03-02T07:15:14;8.20;99.90
24632;DHT22;59977;48.782;9.190;2024-03-02T07:17:58;8.30;99.90
24632;DHT22;59977;48.782;9.190;2024-03-02T07:20:24;8.30;99.90
24632;DHT22;59977;48.782;9.190;2024-03-02T07:22:49;8.30;99.90
24632;DHT22;59977;48.782;9.190;2024-03-02T07:25:15;8.30;99.90
24632;DHT22;59977;48.782;9.190;2024-03-02T07:27:40;8.40;99.90
24632;DHT22;59977;48.782;9.190;2024-03-02T07:30:06;8.30;99.90
24632;DHT22;59977;48.782;9.190;2024-03-02T07:32:32;8.20;99.90
24632;DHT22;59977;48.782;9.190;2024-03-02T07:34:58;8.50;99.90
24632;DHT22;59977;48.782;9.190;2024-03-02T07:37:24;8.40;99.90
24632;DHT22;59977;48.782;9.190;2024-03-02T07:39:50;8.40;99.90
24632;DHT22;59977;48.782;9.190;2024-03-02T07:42:16;8.40;99.90
24632;DHT22;59977;48.782;9.190;2024-03-02T07:44:44;8.50;99.90
24632;DHT22;59977;48.782;9.190;2024-03-02T07:47:10;8.40;99.90
24632;DHT22;59977;48.782;9.190;2024-03-02T07:49:36;8.40;99.90
24632;DHT22;59977;48.782;9.190;2024-03-02T07:52:01;8.40;99.90
24632;DHT22;59977;48.782;9.190;2024-03-02T07:54:27;8.40;99.90
24632;DHT22;59977;48.782;9.190;2024-03-02T07:56:53;8.50;99.90
24632;DHT22;59977;48.782;9.190;2024-03-02T07:59:18;8.40;99.90
24632;DHT22;59977;48.782;9.190;2024-03-02T08:01:44;8.60;99.90
24632;DHT22;59977;48.782;9.190;2024-03-02T08:04:10;8.80;99.90
24632;DHT22;59977;48.782;9.190;2024-03-02T08:06:36;8.40;99.90
24632;DHT22;59977;48.782;9.190;2024-03-02T08:09:01;8.40;99.90
24632;DHT22;59977;48.782;9.190;2024-03-02T08:11:27;8.40;99.90
24632;DHT22;59977;48.782;9.190;2024-03-02T08:13:53;9.10;99.90
24632;DHT22;59977;48.782;9.190;2024-03-02T08:16:21;8.40;99.90
24632;DHT22;59977;48.782;9.190;2024-03-02T08:18:48;8.50;99.90
24632;DHT22;59977;48.782;9.190;2024-03-02T08:21:14;9.30;99.90
24632;DHT22;59977;48.782;9.190;2024-03-02T08:23:40;8.50;99.90
24632;DHT22;59977;48.782;9.190;2024-03-02T08:26:07;8.60;99.90
24632;DHT22;59977;48.782;9.190;2024-03-02T08:28:33;8.60;99.90
24632;DHT22;59977;48.782;9.190;2024-03-02T08:30:59;8.60;99.90
24632;DHT22;59977;48.782;9.190;2024-03-02T08:33:25;9.40;99.90
24632;DHT22;59977;48.782;9.190;2024-03-02T08:35:50;8.90;99.90
24632;DHT22;59977;48.782;9.190;2024-03-02T08:38:16;9.50;99.90
24632;DHT22;59977;48.782;9.190;2024-03-02T08:40:42;9.10;99.90
24632;DHT22;59977;48.782;9.190;2024-03-02T08:43:09;9.00;99.90
24632;DHT22;59977;48.782;9.190;2024-03-02T08:45:34;9.30;99.90
24632;DHT22;59977;48.782;9.190;2024-03-02T08:48:00;9.30;99.90
24632;DHT22;59977;48.782;9.190;2024-03-02T08:50:26;9.40;99.90
24632;DHT22;59977;48.782;9.190;2024-03-02T08:52:51;9.40;99.90
24632;DHT22;59977;48.782;9.190;2024-03-02T08:55:17;9.40;99.90
24632;DHT22;59977;48.782;9.190;2024-03-02T08:57:42;10.10;99.90
24632;DHT22;59977;48.782;9.190;2024-03-02T09:00:08;9.60;99.90
24632;DHT22;59977;48.782;9.190;2024-03-02T09:02:35;9.70;99.90
24632;DHT22;59977;48.782;9.190;2024-03-02T09:05:01;9.80;99.90
24632;DHT22;59977;48.782;9.190;2024-03-02T09:07:27;9.80;99.90
24632;DHT22;59977;48.782;9.190;2024-03-02T09:09:53;9.90;99.90
24632;DHT22;59977;48.782;9.190;2024-03-02T09:12:19;10.20;99.90
24632;DHT22;59977;48.782;9.190;2024-03-02T09:14:45;10.80;99.90
24632;DHT22;59977;48.782;9.190;2024-03-02T09:17:11;10.00;99.90
24632;DHT22;59977;48.782;9.190;2024-03-02T09:19:37;10.10;99.90
24632;DHT22;59977;48.782;9.190;2024-03-02T09:22:03;10.50;99.90
24632;DHT22;59977;48.782;9.190;2024-03-02T09:24:31;10.20;99.90
24632;DHT22;59977;48.782;9.190;2024-03-02T09:26:57;10.30;99.90
24632;DHT22;59977;48.782;9.190;2024-03-02T09:29:22;10.40;99.90
24632;DHT22;59977;48.782;9.190;2024-03-02T09:31:48;11.20;99.90
24632;DHT22;59977;48.782;9.190;2024-03-02T09:34:15;10.80;99.90
24632;DHT22;59977;48.782;9.190;2024-03-02T09:36:41;10.70;99.90
24632;DHT22;59977;48.782;9.190;2024-03-02T09:39:10;10.80;99.90
24632;DHT22;59977;48.782;9.190;2024-03-02T09:41:39;11.10;99.90
24632;DHT22;59977;48.782;9.190;2024-03-02T09:44:05;11.00;99.90
24632;DHT22;59977;48.782;9.190;2024-03-02T09:46:33;11.30;99.90
24632;DHT22;59977;48.782;9.190;2024-03-02T09:49:01;11.30;99.90
24632;DHT22;59977;48.782;9.190;2024-03-02T09:51:26;11.40;99.90
24632;DHT22;59977;48.782;9.190;2024-03-02T09:53:52;11.20;99.90
24632;DHT22;59977;48.782;9.190;2024-03-02T09:56:19;11.80;99.90
24632;DHT22;59977;48.782;9.190;2024-03-02T09:58:46;11.50;99.90
24632;DHT22;59977;48.782;9.190;2024-03-02T10:01:11;12.00;99.90
24632;DHT22;59977;48.782;9.190;2024-03-02T10:03:37;11.50;99.90
24632;DHT22;59977;48.782;9.190;2024-03-02T10:06:23;11.50;99.90
24632;DHT22;59977;48.782;9.190;2024-03-02T10:08:49;11.50;99.90
24632;DHT22;59977;48.782;9.190;2024-03-02T10:11:31;11.60;99.90
24632;DHT22;59977;48.782;9.190;2024-03-02T10:14:12;11.70;99.90
24632;DHT22;59977;48.782;9.190;2024-03-02T10:16:40;11.60;99.90
24632;DHT22;59977;48.782;9.190;2024-03-02T10:21:41;11.80;99.90
24632;DHT22;59977;48.782;9.190;2024-03-02T10:24:07;11.80;99.90
24632;DHT22;59977;48.782;9.190;2024-03-02T10:26:33;11.90;99.90
24632;DHT22;59977;48.782;9.190;2024-03-02T10:28:59;11.90;99.90
24632;DHT22;59977;48.782;9.190;2024-03-02T10:31:25;12.00;99.90
24632;DHT22;59977;48.782;9.190;2024-03-02T10:33:54;12.00;99.90
24632;DHT22;59977;48.782;9.190;2024-03-02T10:36:20;12.20;99.90
24632;DHT22;59977;48.782;9.190;2024-03-02T10:38:46;12.10;99.90
24632;DHT22;59977;48.782;9.190;2024-03-02T10:41:23;12.20;99.90
24632;DHT22;59977;48.782;9.190;2024-03-02T10:43:51;12.10;99.90
24632;DHT22;59977;48.782;9.190;2024-03-02T10:46:20;12.10;99.90
24632;DHT22;59977;48.782;9.190;2024-03-02T10:48:46;12.00;99.90
24632;DHT22;59977;48.782;9.190;2024-03-02T10:51:12;12.10;99.90
24632;DHT22;59977;48.782;9.190;2024-03-02T10:53:38;12.20;99.90
24632;DHT22;59977;48.782;9.190;2024-03-02T10:56:07;13.20;99.90
24632;DHT22;59977;48.782;9.190;2024-03-02T10:58:35;12.40;99.90
24632;DHT22;59977;48.782;9.190;2024-03-02T11:01:03;12.30;99.90
24632;DHT22;59977;48.782;9.190;2024-03-02T11:03:33;12.40;99.90
24632;DHT22;59977;48.782;9.190;2024-03-02T11:06:00;12.50;99.90
24632;DHT22;59977;48.782;9.190;2024-03-02T11:08:34;13.40;99.90
24632;DHT22;59977;48.782;9.190;2024-03-02T11:11:15;13.70;99.90
24632;DHT22;59977;48.782;9.190;2024-03-02T11:13:42;12.80;99.90
24632;DHT22;59977;48.782;9.190;2024-03-02T11:16:32;13.10;99.90
24632;DHT22;59977;48.782;9.190;2024-03-02T11:19:11;13.00;99.90
24632;DHT22;59977;48.782;9.190;2024-03-02T11:21:38;13.10;99.90
24632;DHT22;59977;48.782;9.190;2024-03-02T11:26:50;13.00;99.90
24632;DHT22;59977;48.782;9.190;2024-03-02T11:32:16;13.30;99.90
24632;DHT22;59977;48.782;9.190;2024-03-02T11:34:44;13.20;99.90
24632;DHT22;59977;48.782;9.190;2024-03-02T11:37:13;13.40;99.90
24632;DHT22;59977;48.782;9.190;2024-03-02T11:39:40;13.20;99.90
24632;DHT22;59977;48.782;9.190;2024-03-02T11:42:06;13.40;99.90
24632;DHT22;59977;48.782;9.190;2024-03-02T11:44:35;13.40;99.90
24632;DHT22;59977;48.782;9.190;2024-03-02T11:47:02;13.40;99.90
24632;DHT22;59977;48.782;9.190;2024-03-02T11:49:38;13.40;99.90
24632;DHT22;59977;48.782;9.190;2024-03-02T11:52:08;13.50;99.90
24632;DHT22;59977;48.782;9.190;2024-03-02T11:54:36;13.50;99.90
24632;DHT22;59977;48.782;9.190;2024-03-02T11:57:05;13.50;99.90
24632;DHT22;59977;48.782;9.190;2024-03-02T11:59:31;13.60;99.90
24632;DHT22;59977;48.782;9.190;2024-03-02T12:01:58;13.50;99.90
24632;DHT22;59977;48.782;9.190;2024-03-02T12:04:24;13.50;99.90
24632;DHT22;59977;48.782;9.190;2024-03-02T12:06:55;13.60;99.90
24632;DHT22;59977;48.782;9.190;2024-03-02T12:09:21;13.70;99.90
24632;DHT22;59977;48.782;9.190;2024-03-02T12:11:47;13.60;99.90
24632;DHT22;59977;48.782;9.190;2024-03-02T12:14:13;13.70;99.90
24632;DHT22;59977;48.782;9.190;2024-03-02T12:16:39;13.70;99.90
24632;DHT22;59977;48.782;9.190;2024-03-02T12:19:05;14.10;99.90
24632;DHT22;59977;48.782;9.190;2024-03-02T12:21:31;14.00;99.90
24632;DHT22;59977;48.782;9.190;2024-03-02T12:23:58;14.00;99.90
24632;DHT22;59977;48.782;9.190;2024-03-02T12:26:24;14.10;99.90
24632;DHT22;59977;48.782;9.190;2024-03-02T12:28:50;14.00;99.90
24632;DHT22;59977;48.782;9.190;2024-03-02T12:31:16;14.20;99.90
24632;DHT22;59977;48.782;9.190;2024-03-02T12:33:41;14.10;99.90
24632;DHT22;59977;48.782;9.190;2024-03-02T12:36:10;14.10;99.90
24632;DHT22;59977;48.782;9.190;2024-03-02T12:38:37;14.10;99.90
24632;DHT22;59977;48.782;9.190;2024-03-02T12:41:03;14.20;99.90
24632;DHT22;59977;48.782;9.190;2024-03-02T12:43:31;14.30;99.90
24632;DHT22;59977;48.782;9.190;2024-03-02T12:45:57;14.00;99.90
24632;DHT22;59977;48.782;9.190;2024-03-02T12:48:23;14.00;99.90
24632;DHT22;59977;48.782;9.190;2024-03-02T12:50:49;14.00;99.90
24632;DHT22;59977;48.782;9.190;2024-03-02T12:53:15;14.50;99.90
24632;DHT22;59977;48.782;9.190;2024-03-02T12:55:42;13.80;99.90
24632;DHT22;59977;48.782;9.190;2024-03-02T12:58:09;13.90;99.90
24632;DHT22;59977;48.782;9.190;2024-03-02T13:00:41;14.10;99.90
24632;DHT22;59977;48.782;9.190;2024-03-02T13:03:06;14.00;99.90
24632;DHT22;59977;48.782;9.190;2024-03-02T13:05:32;14.00;99.90
24632;DHT22;59977;48.782;9.190;2024-03-02T13:07:58;14.10;99.90
24632;DHT22;59977;48.782;9.190;2024-03-02T13:10:25;14.30;99.90
24632;DHT22;59977;48.782;9.190;2024-03-02T13:12:51;14.30;99.90
24632;DHT22;59977;48.782;9.190;2024-03-02T13:15:16;14.40;99.90
24632;DHT22;59977;48.782;9.190;2024-03-02T13:17:42;14.80;99.90
24632;DHT22;59977;48.782;9.190;2024-03-02T13:20:09;14.70;99.90
24632;DHT22;59977;48.782;9.190;2024-03-02T13:22:36;14.60;99.90
24632;DHT22;59977;48.782;9.190;2024-03-02T13:25:01;14.80;99.90
24632;DHT22;59977;48.782;9.190;2024-03-02T13:27:30;14.70;99.90
24632;DHT22;59977;48.782;9.190;2024-03-02T13:29:57;14.80;99.90
24632;DHT22;59977;48.782;9.190;2024-03-02T13:32:22;14.90;99.40
24632;DHT22;59977;48.782;9.190;2024-03-02T13:34:50;15.10;99.50
24632;DHT22;59977;48.782;9.190;2024-03-02T13:37:15;15.30;99.20
24632;DHT22;59977;48.782;9.190;2024-03-02T13:39:41;15.30;99.20
24632;DHT22;59977;48.782;9.190;2024-03-02T13:42:11;15.70;98.80
24632;DHT22;59977;48.782;9.190;2024-03-02T13:44:38;15.70;98.20
24632;DHT22;59977;48.782;9.190;2024-03-02T13:47:05;15.50;98.00
24632;DHT22;59977;48.782;9.190;2024-03-02T13:49:31;15.50;98.20
24632;DHT22;59977;48.782;9.190;2024-03-02T13:52:04;15.70;97.60
24632;DHT22;59977;48.782;9.190;2024-03-02T13:54:39;16.00;96.70
24632;DHT22;59977;48.782;9.190;2024-03-02T13:57:06;16.20;96.10
24632;DHT22;59977;48.782;9.190;2024-03-02T13:59:33;16.40;95.40
24632;DHT22;59977;48.782;9.190;2024-03-02T14:01:59;16.40;95.70
24632;DHT22;59977;48.782;9.190;2024-03-02T14:04:24;16.50;95.70
24632;DHT22;59977;48.782;9.190;2024-03-02T14:06:50;16.60;95.30
24632;DHT22;59977;48.782;9.190;2024-03-02T14:09:16;16.80;94.90
24632;DHT22;59977;48.782;9.190;2024-03-02T14:11:41;17.00;94.10
24632;DHT22;59977;48.782;9.190;2024-03-02T14:14:07;17.10;93.60
24632;DHT22;59977;48.782;9.190;2024-03-02T14:16:32;17.10;93.60
24632;DHT22;59977;48.782;9.190;2024-03-02T14:18:59;17.20;92.90
24632;DHT22;59977;48.782;9.190;2024-03-02T14:21:24;17.30;92.50
24632;DHT22;59977;48.782;9.190;2024-03-02T14:23:50;17.40;92.20
24632;DHT22;59977;48.782;9.190;2024-03-02T14:26:16;17.60;92.00
24632;DHT22;59977;48.782;9.190;2024-03-02T14:28:41;17.50;91.80
24632;DHT22;59977;48.782;9.190;2024-03-02T14:31:07;17.70;91.30
24632;DHT22;59977;48.782;9.190;2024-03-02T14:33:33;17.60;91.10
24632;DHT22;59977;48.782;9.190;2024-03-02T14:35:59;17.60;91.00
24632;DHT22;59977;48.782;9.190;2024-03-02T14:38:25;17.70;90.40
24632;DHT22;59977;48.782;9.190;2024-03-02T14:40:50;17.90;89.20
24632;DHT22;59977;48.782;9.190;2024-03-02T14:43:16;18.00;88.20
24632;DHT22;59977;48.782;9.190;2024-03-02T14:45:43;18.00;87.60
24632;DHT22;59977;48.782;9.190;2024-03-02T14:48:08;18.00;85.90
24632;DHT22;59977;48.782;9.190;2024-03-02T14:50:34;18.00;85.50
24632;DHT22;59977;48.782;9.190;2024-03-02T14:53:00;18.00;85.10
24632;DHT22;59977;48.782;9.190;2024-03-02T14:55:26;18.20;83.80
24632;DHT22;59977;48.782;9.190;2024-03-02T14:57:52;18.30;82.30
24632;DHT22;59977;48.782;9.190;2024-03-02T15:00:18;18.50;81.10
24632;DHT22;59977;48.782;9.190;2024-03-02T15:02:44;18.80;81.30
24632;DHT22;59977;48.782;9.190;2024-03-02T15:05:10;19.10;80.20
24632;DHT22;59977;48.782;9.190;2024-03-02T15:07:37;19.40;77.90
24632;DHT22;59977;48.782;9.190;2024-03-02T15:10:04;19.90;75.10
24632;DHT22;59977;48.782;9.190;2024-03-02T15:12:29;19.90;71.30
24632;DHT22;59977;48.782;9.190;2024-03-02T15:14:55;19.60;73.30
24632;DHT22;59977;48.782;9.190;2024-03-02T15:17:22;19.60;72.30
24632;DHT22;59977;48.782;9.190;2024-03-02T15:19:47;19.60;71.40
24632;DHT22;59977;48.782;9.190;2024-03-02T15:22:13;19.50;70.50
24632;DHT22;59977;48.782;9.190;2024-03-02T15:24:38;19.40;69.40
24632;DHT22;59977;48.782;9.190;2024-03-02T15:27:05;19.10;69.30
24632;DHT22;59977;48.782;9.190;2024-03-02T15:29:37;18.70;70.10
24632;DHT22;59977;48.782;9.190;2024-03-02T15:32:03;18.30;70.50
24632;DHT22;59977;48.782;9.190;2024-03-02T15:34:32;18.10;71.10
24632;DHT22;59977;48.782;9.190;2024-03-02T15:36:58;17.70;72.70
24632;DHT22;59977;48.782;9.190;2024-03-02T15:39:25;17.40;72.20
24632;DHT22;59977;48.782;9.190;2024-03-02T15:41:50;17.20;72.70
24632;DHT22;59977;48.782;9.190;2024-03-02T15:44:16;17.10;73.30
24632;DHT22;59977;48.782;9.190;2024-03-02T15:46:42;16.90;74.20